createdAt,value
2023-01-02T00:03:00.035Z,1.90
2023-01-02T00:08:03.462Z,1.92
2023-01-02T00:13:06.975Z,1.58
2023-01-02T00:18:12.750Z,1.60
2023-01-02T00:23:17.239Z,2.15
2023-01-02T00:28:20.497Z,1.60
2023-01-02T00:33:25.292Z,1.73
2023-01-02T00:38:28.646Z,1.40
2023-01-02T00:43:32.072Z,1.48
2023-01-02T00:48:36.815Z,1.40
2023-01-02T00:53:40.203Z,1.30
2023-01-02T00:58:46.236Z,1.40
2023-01-02T01:03:50.847Z,1.30
2023-01-02T01:08:56.181Z,1.42
2023-01-02T01:13:59.746Z,1.70
2023-01-02T01:19:04.491Z,1.75
2023-01-02T01:24:08.937Z,1.45
2023-01-02T01:29:12.141Z,1.70
2023-01-02T01:34:17.047Z,1.30
2023-01-02T01:39:20.501Z,1.23
2023-01-02T01:44:44.646Z,1.50
2023-01-02T01:49:52.804Z,1.23
2023-01-02T01:54:59.855Z,1.20
2023-01-02T02:00:03.796Z,1.30
2023-01-02T02:05:12.485Z,1.63
2023-01-02T02:10:15.902Z,1.20
2023-01-02T02:15:24.314Z,1.20
2023-01-02T02:20:40.282Z,1.33
2023-01-02T02:25:57.028Z,1.33
2023-01-02T02:31:08.753Z,1.23
2023-01-02T02:36:22.812Z,1.50
2023-01-02T02:41:34.589Z,1.45
2023-01-02T02:46:49.254Z,1.50
2023-01-02T02:51:58.763Z,1.40
2023-01-02T02:57:03.222Z,1.40
2023-01-02T03:02:08.419Z,1.40
2023-01-02T03:07:21.766Z,1.33
2023-01-02T03:12:34.507Z,1.33
2023-01-02T03:17:54.774Z,1.02
2023-01-02T03:23:02.500Z,1.05
2023-01-02T03:28:10.043Z,1.10
2023-01-02T03:33:18.605Z,0.90
2023-01-02T03:38:27.574Z,1.40
2023-01-02T03:43:33.203Z,1.00
2023-01-02T03:48:44.516Z,1.52
2023-01-02T03:53:50.217Z,1.17
2023-01-02T03:58:59.611Z,1.00
2023-01-02T04:04:13.095Z,1.27
2023-01-02T04:09:19.773Z,1.60
2023-01-02T04:14:29.343Z,1.30
2023-01-02T04:19:36.645Z,1.00
2023-01-02T04:24:47.243Z,1.30
2023-01-02T04:29:50.891Z,1.27
2023-01-02T04:34:57.860Z,1.10
2023-01-02T04:40:06.884Z,1.20
2023-01-02T04:45:11.109Z,1.33
2023-01-02T04:50:16.031Z,1.00
2023-01-02T04:55:19.344Z,1.30
2023-01-02T05:00:22.828Z,1.20
2023-01-02T05:05:27.508Z,1.23
2023-01-02T05:10:30.721Z,1.17
2023-01-02T05:15:34.007Z,1.20
2023-01-02T05:20:38.698Z,1.20
2023-01-02T05:25:41.894Z,1.60
2023-01-02T05:30:49.628Z,1.17
2023-01-02T05:35:54.850Z,1.10
2023-01-02T05:41:02.049Z,1.30
2023-01-02T05:46:11.286Z,1.70
2023-01-02T05:51:17.333Z,1.40
2023-01-02T05:56:22.030Z,1.50
2023-01-02T06:01:27.236Z,1.40
2023-01-02T06:06:34.802Z,1.67
2023-01-02T06:11:38.759Z,1.40
2023-01-02T06:16:42.404Z,1.42
2023-01-02T06:21:48.085Z,1.33
2023-01-02T06:26:51.416Z,1.48
2023-01-02T06:31:54.794Z,1.85
2023-01-02T06:37:03.087Z,1.45
2023-01-02T06:42:09.316Z,1.77
2023-01-02T06:47:12.583Z,1.52
2023-01-02T06:52:17.260Z,1.80
2023-01-02T06:57:20.575Z,1.35
2023-01-02T07:02:23.899Z,1.50
2023-01-02T07:07:28.602Z,1.40
2023-01-02T07:12:31.891Z,1.73
2023-01-02T07:17:35.369Z,1.30
2023-01-02T07:22:41.088Z,1.33
2023-01-02T07:27:44.622Z,2.15
2023-01-02T07:32:47.839Z,1.45
2023-01-02T07:37:52.979Z,1.20
2023-01-02T07:42:56.238Z,1.67
2023-01-02T07:47:59.693Z,1.40
2023-01-02T07:53:04.341Z,1.40
2023-01-02T07:58:07.648Z,1.50
2023-01-02T08:03:10.902Z,1.35
2023-01-02T08:08:15.884Z,1.73
2023-01-02T08:13:20.155Z,1.48
2023-01-02T08:18:25.413Z,1.95
2023-01-02T08:23:30.128Z,1.17
2023-01-02T08:28:34.752Z,2.17
2023-01-02T08:33:38.161Z,1.90
2023-01-02T08:38:44.147Z,1.27
2023-01-02T08:43:47.349Z,1.20
2023-01-02T08:48:50.628Z,1.23
2023-01-02T08:53:55.340Z,1.13
2023-01-02T08:59:00.491Z,1.70
2023-01-02T09:04:11.507Z,1.45
2023-01-02T09:09:18.655Z,0.93
2023-01-02T09:14:23.170Z,1.40
2023-01-02T09:19:28.800Z,1.30
2023-01-02T09:24:34.535Z,1.48
2023-01-02T09:29:37.691Z,1.20
2023-01-02T09:34:40.897Z,1.30
2023-01-02T09:39:45.686Z,1.33
2023-01-02T09:44:53.187Z,1.30
2023-01-02T09:49:59.007Z,1.52
2023-01-02T09:55:04.500Z,1.58
2023-01-02T10:00:15.847Z,1.50
2023-01-02T10:05:46.275Z,1.40
2023-01-02T10:10:58.116Z,1.42
2023-01-02T10:16:08.258Z,1.80
2023-01-02T10:21:15.988Z,1.20
2023-01-02T10:26:22.111Z,1.50
2023-01-02T10:31:30.317Z,1.30
2023-01-02T10:36:37.250Z,1.35
2023-01-02T10:41:50.317Z,1.52
2023-01-02T10:46:58.955Z,1.92
2023-01-02T10:52:07.461Z,1.73
2023-01-02T10:57:20.714Z,1.48
2023-01-02T11:02:29.591Z,1.52
2023-01-02T11:07:35.020Z,1.50
2023-01-02T11:12:48.773Z,1.17
2023-01-02T11:17:53.095Z,1.10
2023-01-02T11:22:59.648Z,1.85
2023-01-02T11:28:15.674Z,1.70
2023-01-02T11:33:28.370Z,1.52
2023-01-02T11:38:44.993Z,1.48
2023-01-02T11:43:55.978Z,1.17
2023-01-02T11:49:06.957Z,1.45
2023-01-02T11:54:15.538Z,1.40
2023-01-02T11:59:23.652Z,1.10
2023-01-02T12:04:27.267Z,2.53
2023-01-02T12:09:38.442Z,1.42
2023-01-02T12:15:00.039Z,1.58
2023-01-02T12:20:41.247Z,1.70
2023-01-02T12:25:57.410Z,1.73
2023-01-02T12:31:20.576Z,1.05
2023-01-02T12:36:45.270Z,1.55
2023-01-02T12:42:01.253Z,1.38
2023-01-02T12:47:41.967Z,1.00
2023-01-02T12:52:59.419Z,1.55
2023-01-02T12:58:08.022Z,1.83
2023-01-02T13:03:46.845Z,1.83
2023-01-02T13:08:56.843Z,1.52
2023-01-02T13:14:03.656Z,2.10
2023-01-02T13:19:22.062Z,1.55
2023-01-02T13:24:28.018Z,1.30
2023-01-02T13:29:41.872Z,1.55
2023-01-02T13:34:52.472Z,1.17
2023-01-02T13:40:00.282Z,2.10
2023-01-02T13:45:12.349Z,2.28
2023-01-02T13:50:23.927Z,1.70
2023-01-02T13:55:34.756Z,1.42
2023-01-02T14:00:39.965Z,2.05
2023-01-02T14:06:04.166Z,2.03
2023-01-02T14:11:13.576Z,1.67
2023-01-02T14:16:49.552Z,1.80
2023-01-02T14:22:07.632Z,1.50
2023-01-02T14:27:29.864Z,1.55
2023-01-02T14:32:39.755Z,1.50
2023-01-02T14:37:46.687Z,1.60
2023-01-02T14:43:13.275Z,1.77
2023-01-02T14:48:25.336Z,1.42
2023-01-02T14:53:34.555Z,1.65
2023-01-02T14:58:43.031Z,1.90
2023-01-02T15:03:56.333Z,1.55
2023-01-02T15:09:05.809Z,1.73
2023-01-02T15:14:15.272Z,1.40
2023-01-02T15:19:24.317Z,1.48
2023-01-02T15:24:30.506Z,1.98
2023-01-02T15:29:35.242Z,1.80
2023-01-02T15:34:38.617Z,1.90
2023-01-02T15:39:44.112Z,2.10
2023-01-02T15:45:06.675Z,1.50
2023-01-02T15:50:16.720Z,2.50
2023-01-02T15:55:21.329Z,1.92
2023-01-02T16:00:40.815Z,1.45
2023-01-02T16:05:51.168Z,1.52
2023-01-02T16:11:01.574Z,1.48
2023-01-02T16:16:16.702Z,1.00
2023-01-02T16:21:21.201Z,1.17
2023-01-02T16:26:35.710Z,1.10
2023-01-02T16:32:02.502Z,1.35
2023-01-02T16:37:25.132Z,0.93
2023-01-02T16:42:38.344Z,0.90
2023-01-02T16:47:45.192Z,0.85
2023-01-02T16:52:48.556Z,1.00
2023-01-02T16:57:52.529Z,1.40
2023-01-02T17:02:57.491Z,1.10
2023-01-02T17:08:01.170Z,1.20
2023-01-02T17:13:06.109Z,0.80
2023-01-02T17:18:11.194Z,1.20
2023-01-02T17:23:14.518Z,1.00
2023-01-02T17:28:18.332Z,1.20
2023-01-02T17:33:25.586Z,1.38
2023-01-02T17:38:28.805Z,1.10
2023-01-02T17:43:32.726Z,1.30
2023-01-02T17:48:37.819Z,1.45
2023-01-02T17:53:41.108Z,1.00
2023-01-02T17:58:45.219Z,1.10
2023-01-02T18:03:51.444Z,1.30
2023-01-02T18:08:55.694Z,1.20
2023-01-02T18:13:59.869Z,1.10
2023-01-02T18:19:11.325Z,1.00
2023-01-02T18:24:17.103Z,1.40
2023-01-02T18:29:23.112Z,1.45
2023-01-02T18:34:47.839Z,1.30
2023-01-02T18:39:52.196Z,1.30
2023-01-02T18:44:56.399Z,1.42
2023-01-02T18:50:24.102Z,1.13
2023-01-02T18:55:30.669Z,1.55
2023-01-02T19:00:42.419Z,1.65
2023-01-02T19:05:47.673Z,2.00
2023-01-02T19:10:54.191Z,1.55
2023-01-02T19:16:00.139Z,1.80
2023-01-02T19:21:17.426Z,1.80
2023-01-02T19:26:25.638Z,1.67
2023-01-02T19:31:37.205Z,1.15
2023-01-02T19:36:43.552Z,0.80
2023-01-02T19:42:03.848Z,0.77
2023-01-02T19:47:07.207Z,0.80
2023-01-02T19:52:12.568Z,0.43
2023-01-02T19:57:17.764Z,0.73
2023-01-02T20:02:22.593Z,0.80
2023-01-02T20:07:27.979Z,0.50
2023-01-02T20:12:35.653Z,0.60
2023-01-02T20:17:40.282Z,0.50
2023-01-02T20:22:51.888Z,0.32
2023-01-02T20:27:56.929Z,0.60
2023-01-02T20:33:00.194Z,0.40
2023-01-02T20:38:04.789Z,0.30
2023-01-02T20:43:08.098Z,0.43
2023-01-02T20:48:11.481Z,0.40
2023-01-02T20:53:16.371Z,0.40
2023-01-02T20:58:19.683Z,0.50
2023-01-02T21:03:24.770Z,0.50
2023-01-02T21:08:29.661Z,0.50
2023-01-02T21:13:35.515Z,0.63
2023-01-02T21:18:41.440Z,0.50
2023-01-02T21:23:46.334Z,0.55
2023-01-02T21:28:50.223Z,0.52
2023-01-02T21:33:55.580Z,0.30
2023-01-02T21:39:00.255Z,0.30
2023-01-02T21:44:04.636Z,0.40
2023-01-02T21:49:08.010Z,0.38
2023-01-02T21:54:12.562Z,0.40
2023-01-02T21:59:15.787Z,0.50
2023-01-02T22:04:19.911Z,0.52
2023-01-02T22:09:24.881Z,0.50
2023-01-02T22:14:29.808Z,0.40
2023-01-02T22:19:33.396Z,0.30
2023-01-02T22:24:44.221Z,0.40
2023-01-02T22:30:19.987Z,0.50
2023-01-02T22:35:13.865Z,0.50
2023-01-02T22:40:18.460Z,0.60
2023-01-02T22:45:24.805Z,0.60
2023-01-02T22:50:34.036Z,0.30
2023-01-02T22:55:38.830Z,0.43
2023-01-02T23:00:42.317Z,0.40
2023-01-02T23:05:45.754Z,0.50
2023-01-02T23:10:50.538Z,0.57
2023-01-02T23:16:11.143Z,0.50
2023-01-02T23:21:14.385Z,0.75
2023-01-02T23:26:19.967Z,0.60
2023-01-02T23:31:24.376Z,0.50
2023-01-02T23:36:27.987Z,0.55
2023-01-02T23:41:32.645Z,0.40
2023-01-02T23:46:36.926Z,0.30
2023-01-02T23:51:40.873Z,0.52
2023-01-02T23:56:47.171Z,0.40
